Time;durP1;ratioP1;P1;durP2;ratioP2;P2;SDS_P1;SDS_P2;PMS_P1;PMS_P2;Temp;Humidity;BMP_temperature;BMP_pressure;BME280_temperature;BME280_humidity;BME280_pressure;Samples;Min_cycle;Max_cycle;Signal;HPM_P1;HPM_P2
2021/09/20 00:00:40;;;;;;;5.70;2.60;;;14.90;88.20;;;;;;5053499;28;20013;-73
2021/09/20 00:03:06;;;;;;;4.93;2.70;;;14.90;87.60;;;;;;5053943;28;20123;-73
2021/09/20 00:05:32;;;;;;;4.10;2.10;;;14.80;87.50;;;;;;5053139;28;20037;-74
2021/09/20 00:07:58;;;;;;;4.47;2.42;;;14.90;87.50;;;;;;5053135;28;20017;-73
2021/09/20 00:10:23;;;;;;;4.78;2.20;;;14.80;87.50;;;;;;5052845;28;20411;-73
2021/09/20 00:12:49;;;;;;;6.95;2.75;;;14.80;87.50;;;;;;5053991;28;20071;-74
2021/09/20 00:15:15;;;;;;;4.15;2.25;;;14.80;87.50;;;;;;5052481;28;20600;-74
2021/09/20 00:17:41;;;;;;;4.93;2.42;;;14.80;87.50;;;;;;5053936;28;20048;-74
2021/09/20 00:20:09;;;;;;;3.83;2.00;;;14.70;87.40;;;;;;5052222;28;20461;-74
2021/09/20 00:22:36;;;;;;;6.03;2.20;;;14.80;87.40;;;;;;5054128;28;20028;-74
2021/09/20 00:25:02;;;;;;;4.00;2.10;;;14.70;87.30;;;;;;5053893;28;20028;-74
2021/09/20 00:27:28;;;;;;;4.07;2.15;;;14.70;87.30;;;;;;5054538;28;20337;-74
2021/09/20 00:29:54;;;;;;;5.22;2.10;;;14.70;87.40;;;;;;5053628;28;20503;-74
2021/09/20 00:32:19;;;;;;;5.30;2.45;;;14.70;87.50;;;;;;5053060;28;20525;-74
2021/09/20 00:34:45;;;;;;;4.80;1.95;;;14.70;87.60;;;;;;5052720;28;20017;-74
2021/09/20 00:37:11;;;;;;;3.58;2.15;;;14.70;87.60;;;;;;5053270;28;20024;-74
2021/09/20 00:39:38;;;;;;;4.00;2.42;;;14.60;87.70;;;;;;5053904;28;20028;-74
2021/09/20 00:42:04;;;;;;;5.47;2.78;;;14.60;87.80;;;;;;5053233;28;20024;-74
2021/09/20 00:44:30;;;;;;;4.55;2.47;;;14.60;87.90;;;;;;5052150;28;20059;-75
2021/09/20 00:46:56;;;;;;;4.28;2.33;;;14.60;88.00;;;;;;5053726;28;20021;-74
2021/09/20 00:49:21;;;;;;;5.28;2.70;;;14.60;88.10;;;;;;5051428;28;20075;-75
2021/09/20 00:51:47;;;;;;;5.28;2.40;;;14.50;88.10;;;;;;5052235;28;20035;-74
2021/09/20 00:54:13;;;;;;;5.45;2.72;;;14.50;88.20;;;;;;5053063;28;20408;-74
2021/09/20 00:56:39;;;;;;;4.50;2.30;;;14.50;88.10;;;;;;5053819;28;20094;-75
2021/09/20 00:59:05;;;;;;;5.60;2.28;;;14.50;88.20;;;;;;5051690;28;20052;-74
2021/09/20 01:01:32;;;;;;;4.68;2.53;;;14.40;88.20;;;;;;5053090;28;20425;-75
2021/09/20 01:03:58;;;;;;;5.40;2.63;;;14.40;88.30;;;;;;5068722;28;20025;-74
2021/09/20 01:06:23;;;;;;;5.20;2.80;;;14.40;88.40;;;;;;5052736;28;20024;-74
2021/09/20 01:08:49;;;;;;;4.80;2.38;;;14.40;88.50;;;;;;5053350;28;20044;-75
2021/09/20 01:11:15;;;;;;;5.22;2.60;;;14.40;88.50;;;;;;5052511;28;20021;-74
2021/09/20 01:13:41;;;;;;;4.35;2.33;;;14.30;88.60;;;;;;5051861;28;20051;-74
2021/09/20 01:16:07;;;;;;;4.55;2.50;;;14.30;88.60;;;;;;5051180;28;20449;-75
2021/09/20 01:18:33;;;;;;;4.00;2.08;;;14.30;88.60;;;;;;5052440;28;20353;-74
2021/09/20 01:20:58;;;;;;;4.05;2.45;;;14.30;88.80;;;;;;5053396;28;20067;-74
2021/09/20 01:23:24;;;;;;;5.22;2.70;;;14.20;88.80;;;;;;5052139;28;20063;-74
2021/09/20 01:25:50;;;;;;;5.28;2.60;;;14.20;88.90;;;;;;5053220;28;20017;-75
2021/09/20 01:28:16;;;;;;;4.75;2.28;;;14.20;89.10;;;;;;5050979;28;20017;-74
2021/09/20 01:30:42;;;;;;;5.63;2.47;;;14.20;88.90;;;;;;5052890;28;20044;-75
2021/09/20 01:33:07;;;;;;;4.57;2.55;;;14.20;88.90;;;;;;5052139;28;20162;-73
2021/09/20 01:35:33;;;;;;;5.15;2.55;;;14.10;88.90;;;;;;5052712;28;20072;-74
2021/09/20 01:37:59;;;;;;;4.55;2.80;;;14.10;89.00;;;;;;5051461;28;20028;-74
2021/09/20 01:40:26;;;;;;;5.18;2.88;;;14.10;89.10;;;;;;5052119;28;20017;-74
2021/09/20 01:42:52;;;;;;;5.38;2.83;;;14.10;89.10;;;;;;5051388;28;20021;-73
2021/09/20 01:45:18;;;;;;;5.65;2.75;;;14.00;89.00;;;;;;5050653;28;20013;-73
2021/09/20 01:47:44;;;;;;;5.20;2.58;;;14.00;89.10;;;;;;5053045;28;20104;-73
2021/09/20 01:50:11;;;;;;;4.82;2.35;;;14.00;89.20;;;;;;5051877;28;20021;-73
2021/09/20 01:52:37;;;;;;;6.22;2.60;;;14.00;89.10;;;;;;5052654;28;20132;-73
2021/09/20 01:55:06;;;;;;;5.57;2.70;;;14.00;89.20;;;;;;5051614;28;20024;-74
2021/09/20 01:57:32;;;;;;;4.25;2.30;;;14.00;89.20;;;;;;5051021;28;20436;-74
2021/09/20 01:59:59;;;;;;;4.18;2.33;;;14.00;89.00;;;;;;5052295;28;20044;-74
2021/09/20 02:02:24;;;;;;;4.80;2.53;;;14.00;88.90;;;;;;5051756;28;20029;-74
2021/09/20 02:04:50;;;;;;;5.13;2.33;;;14.00;88.90;;;;;;5050938;28;20056;-74
2021/09/20 02:07:16;;;;;;;5.07;2.75;;;13.90;88.90;;;;;;5051432;28;20043;-74
2021/09/20 02:09:42;;;;;;;4.03;2.55;;;13.90;89.00;;;;;;5050889;28;20388;-74
2021/09/20 02:12:07;;;;;;;5.30;3.13;;;13.90;89.00;;;;;;5051468;28;20100;-73
2021/09/20 02:14:33;;;;;;;5.53;2.80;;;13.90;89.00;;;;;;5052618;28;20480;-74
2021/09/20 02:16:59;;;;;;;4.85;2.42;;;13.90;89.00;;;;;;5050883;28;20024;-74
2021/09/20 02:19:25;;;;;;;5.00;2.80;;;13.90;89.00;;;;;;5051788;28;20044;-74
2021/09/20 02:21:51;;;;;;;4.80;2.40;;;13.90;89.00;;;;;;5052186;28;20032;-73
2021/09/20 02:24:16;;;;;;;5.82;2.63;;;13.80;89.00;;;;;;5051637;28;20051;-73
2021/09/20 02:26:42;;;;;;;5.20;2.63;;;13.90;89.00;;;;;;5050698;28;20365;-73
2021/09/20 02:29:08;;;;;;;5.10;2.55;;;13.90;89.00;;;;;;5050901;28;20020;-73
2021/09/20 02:31:34;;;;;;;4.70;2.50;;;13.80;88.90;;;;;;5052072;28;20094;-75
2021/09/20 02:33:59;;;;;;;6.50;2.65;;;13.80;88.90;;;;;;5051622;28;20027;-74
2021/09/20 02:36:25;;;;;;;4.68;2.38;;;13.80;88.90;;;;;;5051278;28;20116;-73
2021/09/20 02:38:51;;;;;;;4.70;2.63;;;13.80;88.90;;;;;;5052194;28;20020;-73
2021/09/20 02:41:17;;;;;;;4.80;2.22;;;13.80;88.90;;;;;;5050928;28;20032;-73
2021/09/20 02:43:44;;;;;;;3.63;2.30;;;13.80;88.90;;;;;;5051556;28;20028;-74
2021/09/20 02:46:10;;;;;;;4.68;2.30;;;13.70;88.90;;;;;;5051263;28;20101;-72
2021/09/20 02:48:36;;;;;;;6.18;2.75;;;13.70;88.80;;;;;;5052045;28;20023;-73
2021/09/20 02:51:02;;;;;;;5.00;2.70;;;13.70;88.80;;;;;;5050441;28;20110;-74
2021/09/20 02:53:28;;;;;;;5.80;2.63;;;13.70;88.80;;;;;;5049697;28;20021;-73
2021/09/20 02:55:53;;;;;;;5.95;2.50;;;13.70;88.80;;;;;;5051964;28;20048;-74
2021/09/20 02:58:19;;;;;;;6.28;2.85;;;13.70;88.70;;;;;;5051145;28;20013;-73
2021/09/20 03:00:45;;;;;;;4.82;2.35;;;13.70;88.80;;;;;;5051667;28;20017;-74
2021/09/20 03:03:11;;;;;;;6.78;3.08;;;13.60;88.70;;;;;;5049668;28;20183;-74
2021/09/20 03:05:37;;;;;;;4.90;2.53;;;13.60;88.70;;;;;;5051336;28;20025;-74
2021/09/20 03:08:04;;;;;;;4.25;2.50;;;13.60;88.70;;;;;;5051598;28;20027;-74
2021/09/20 03:10:30;;;;;;;5.53;2.50;;;13.60;88.70;;;;;;5050983;28;20457;-74
2021/09/20 03:12:56;;;;;;;3.78;2.15;;;13.60;88.60;;;;;;5051527;28;20031;-74
2021/09/20 03:15:22;;;;;;;5.60;2.60;;;13.60;88.60;;;;;;5050912;28;20025;-74
2021/09/20 03:17:48;;;;;;;5.85;2.80;;;13.60;88.50;;;;;;5054605;28;20033;-75
2021/09/20 03:20:15;;;;;;;3.83;2.13;;;13.60;88.50;;;;;;5056183;28;20048;-75
2021/09/20 03:22:40;;;;;;;4.15;2.50;;;13.50;88.50;;;;;;5059558;28;20044;-74
2021/09/20 03:25:07;;;;;;;5.30;2.42;;;13.50;88.50;;;;;;5055153;28;20028;-74
2021/09/20 03:27:33;;;;;;;4.25;2.65;;;13.50;88.40;;;;;;5055582;28;20460;-74
2021/09/20 03:29:59;;;;;;;4.13;2.40;;;13.50;88.30;;;;;;5056312;28;20040;-74
2021/09/20 03:32:25;;;;;;;5.00;2.67;;;13.40;88.30;;;;;;5058723;28;20042;-74
2021/09/20 03:34:50;;;;;;;4.13;2.60;;;13.50;88.40;;;;;;5052150;28;20029;-75
2021/09/20 03:37:16;;;;;;;4.10;2.50;;;13.40;89.00;;;;;;5061510;28;20039;-74
2021/09/20 03:39:42;;;;;;;4.55;2.75;;;13.40;88.30;;;;;;5059754;28;20021;-74
2021/09/20 03:42:07;;;;;;;3.97;2.40;;;13.40;88.40;;;;;;5057929;28;20087;-75
2021/09/20 03:44:34;;;;;;;3.97;2.25;;;13.40;88.40;;;;;;5063430;28;20021;-75
2021/09/20 03:46:59;;;;;;;5.20;2.50;;;13.30;88.40;;;;;;5054380;28;20025;-75
2021/09/20 03:49:25;;;;;;;5.65;2.42;;;13.30;88.50;;;;;;5053625;28;20373;-74
2021/09/20 03:51:51;;;;;;;3.53;2.10;;;13.30;88.60;;;;;;5054251;28;20033;-75
2021/09/20 03:54:16;;;;;;;7.18;2.78;;;13.30;88.60;;;;;;5051947;28;20032;-74
2021/09/20 03:56:42;;;;;;;8.18;2.38;;;13.30;88.70;;;;;;5052889;28;20017;-79
2021/09/20 03:59:08;;;;;;;4.88;2.10;;;13.30;88.70;;;;;;5051490;28;20047;-77
2021/09/20 04:01:33;;;;;;;5.95;2.58;;;13.30;88.80;;;;;;5050286;28;20029;-75
2021/09/20 04:03:59;;;;;;;4.93;2.50;;;13.30;88.70;;;;;;5051168;28;20697;-77
2021/09/20 04:06:25;;;;;;;4.32;2.30;;;13.30;88.70;;;;;;5049772;28;20113;-77
2021/09/20 04:08:52;;;;;;;3.92;2.33;;;13.20;88.70;;;;;;5058893;28;20039;-75
2021/09/20 04:11:18;;;;;;;4.68;2.40;;;13.30;88.90;;;;;;5059755;28;20036;-76
2021/09/20 04:13:44;;;;;;;5.22;2.70;;;13.30;88.90;;;;;;5052212;28;20025;-75
2021/09/20 04:16:09;;;;;;;8.55;5.15;;;13.30;89.00;;;;;;5052073;28;20356;-76
2021/09/20 04:18:35;;;;;;;6.28;3.30;;;13.20;88.90;;;;;;5051389;28;20124;-77
2021/09/20 04:21:01;;;;;;;5.07;3.10;;;13.20;88.90;;;;;;5052351;28;20021;-76
2021/09/20 04:23:26;;;;;;;4.85;2.50;;;13.20;89.00;;;;;;5049748;28;20039;-76
2021/09/20 04:25:53;;;;;;;5.03;2.50;;;13.20;88.90;;;;;;5052510;28;20017;-76
2021/09/20 04:28:20;;;;;;;4.90;2.33;;;13.20;88.90;;;;;;5051475;28;20361;-76
2021/09/20 04:30:46;;;;;;;4.88;2.38;;;13.20;88.90;;;;;;5050012;28;20044;-72
2021/09/20 04:33:14;;;;;;;5.55;2.80;;;13.20;89.00;;;;;;5052559;28;20032;-73
2021/09/20 04:35:40;;;;;;;4.88;2.67;;;13.20;89.00;;;;;;5053631;28;20078;-73
2021/09/20 04:38:07;;;;;;;6.35;2.65;;;13.20;89.10;;;;;;5052481;28;20017;-72
2021/09/20 04:40:34;;;;;;;6.75;3.03;;;13.20;89.10;;;;;;5053273;28;20538;-72
2021/09/20 04:43:01;;;;;;;5.68;2.75;;;13.20;89.10;;;;;;5053780;28;20017;-73
2021/09/20 04:45:26;;;;;;;5.15;2.25;;;13.10;89.10;;;;;;5053229;28;20017;-73
2021/09/20 04:47:52;;;;;;;5.93;2.95;;;13.10;89.10;;;;;;5052406;28;20017;-73
2021/09/20 04:50:18;;;;;;;6.78;3.30;;;13.10;89.20;;;;;;5053125;28;20039;-74
2021/09/20 04:52:44;;;;;;;3.80;2.50;;;13.10;89.20;;;;;;5051815;28;20032;-73
2021/09/20 04:55:10;;;;;;;4.22;2.20;;;13.10;89.20;;;;;;5053293;28;20012;-73
2021/09/20 04:57:36;;;;;;;5.55;2.80;;;13.20;89.30;;;;;;5052719;28;20070;-73
2021/09/20 05:00:04;;;;;;;4.55;2.45;;;13.20;89.30;;;;;;5052275;28;20107;-73
2021/09/20 05:02:30;;;;;;;5.03;2.47;;;13.10;89.30;;;;;;5052423;28;20063;-73
2021/09/20 05:04:55;;;;;;;5.40;2.78;;;13.10;89.30;;;;;;5052024;28;20071;-73
2021/09/20 05:07:21;;;;;;;5.57;3.00;;;13.10;89.40;;;;;;5052873;28;20426;-73
2021/09/20 05:09:47;;;;;;;5.45;2.97;;;13.10;89.50;;;;;;5053243;28;20075;-73
2021/09/20 05:12:12;;;;;;;5.25;2.65;;;13.10;90.00;;;;;;5052809;28;20033;-72
2021/09/20 05:14:38;;;;;;;5.85;2.80;;;13.10;89.60;;;;;;5052633;28;20025;-73
2021/09/20 05:17:04;;;;;;;4.90;2.67;;;13.10;89.50;;;;;;5053118;28;20087;-75
2021/09/20 05:19:31;;;;;;;4.90;2.90;;;13.10;89.50;;;;;;5052512;28;20057;-73
2021/09/20 05:21:57;;;;;;;4.32;2.47;;;13.10;89.50;;;;;;5051895;28;20413;-75
2021/09/20 05:24:23;;;;;;;5.68;2.85;;;13.10;89.60;;;;;;5052465;28;20017;-73
2021/09/20 05:26:48;;;;;;;5.65;2.85;;;13.10;89.70;;;;;;5052946;28;20392;-73
2021/09/20 05:29:14;;;;;;;6.60;3.03;;;13.10;89.80;;;;;;5052863;28;20568;-74
2021/09/20 05:31:40;;;;;;;6.03;2.85;;;13.10;89.80;;;;;;5050772;28;20044;-74
2021/09/20 05:34:06;;;;;;;6.10;2.78;;;13.10;89.70;;;;;;5052799;28;20453;-74
2021/09/20 05:36:31;;;;;;;7.93;3.88;;;13.10;89.90;;;;;;5050785;28;20101;-74
2021/09/20 05:38:57;;;;;;;5.18;3.03;;;13.10;90.00;;;;;;5052697;28;20360;-74
2021/09/20 05:41:23;;;;;;;7.00;3.10;;;13.10;89.90;;;;;;5052158;28;20031;-73
2021/09/20 05:43:49;;;;;;;5.47;2.85;;;13.10;89.90;;;;;;5051381;28;20099;-74
2021/09/20 05:46:14;;;;;;;5.78;3.15;;;13.10;89.90;;;;;;5051365;28;20021;-74
2021/09/20 05:48:40;;;;;;;5.10;2.58;;;13.10;89.90;;;;;;5051636;28;20021;-74
2021/09/20 05:51:06;;;;;;;6.22;3.20;;;13.10;90.00;;;;;;5052290;28;20356;-74
2021/09/20 05:53:32;;;;;;;5.78;2.58;;;13.10;90.00;;;;;;5051515;28;20038;-73
2021/09/20 05:55:57;;;;;;;7.78;2.83;;;13.10;90.00;;;;;;5051049;28;20021;-73
2021/09/20 05:58:23;;;;;;;4.80;2.53;;;13.10;90.00;;;;;;5051565;28;20091;-73
2021/09/20 06:00:50;;;;;;;6.53;3.00;;;13.10;90.00;;;;;;5052461;28;20404;-73
2021/09/20 06:03:16;;;;;;;6.22;2.80;;;13.10;90.00;;;;;;5050999;28;20033;-74
2021/09/20 06:05:42;;;;;;;6.38;3.10;;;13.20;90.00;;;;;;5051062;28;20025;-74
2021/09/20 06:08:08;;;;;;;6.15;3.42;;;13.20;90.00;;;;;;5052205;28;20013;-74
2021/09/20 06:10:34;;;;;;;7.30;3.67;;;13.20;90.00;;;;;;5051297;28;20017;-73
2021/09/20 06:13:00;;;;;;;7.90;3.40;;;13.20;90.00;;;;;;5052062;28;20025;-74
2021/09/20 06:15:26;;;;;;;5.95;3.15;;;13.20;90.00;;;;;;5051234;28;20060;-74
2021/09/20 06:17:52;;;;;;;6.45;3.30;;;13.20;90.00;;;;;;5051997;28;20054;-74
2021/09/20 06:20:18;;;;;;;5.40;2.83;;;13.30;90.00;;;;;;5052041;28;20024;-73
2021/09/20 06:22:44;;;;;;;6.18;2.88;;;13.20;89.90;;;;;;5050173;28;20360;-73
2021/09/20 06:25:10;;;;;;;7.15;3.30;;;13.30;90.00;;;;;;5052118;28;20114;-72
2021/09/20 06:27:36;;;;;;;7.50;3.67;;;13.30;89.80;;;;;;5051609;28;20063;-72
2021/09/20 06:30:04;;;;;;;9.20;3.40;;;13.30;89.90;;;;;;5050451;28;20464;-75
2021/09/20 06:32:30;;;;;;;6.55;3.17;;;13.30;89.90;;;;;;5051422;28;20028;-75
2021/09/20 06:34:56;;;;;;;7.53;3.30;;;13.30;89.80;;;;;;5051604;28;20025;-75
2021/09/20 06:37:21;;;;;;;6.82;3.25;;;13.40;89.80;;;;;;5051550;28;20021;-75
2021/09/20 06:39:47;;;;;;;6.00;3.03;;;13.40;89.80;;;;;;5051149;28;20017;-73
2021/09/20 06:42:13;;;;;;;6.40;3.05;;;13.40;89.70;;;;;;5051931;28;20021;-73
2021/09/20 06:44:38;;;;;;;5.68;3.30;;;13.40;89.60;;;;;;5050927;28;20099;-73
2021/09/20 06:47:04;;;;;;;5.88;3.35;;;13.50;89.60;;;;;;5052209;28;20035;-74
2021/09/20 06:49:30;;;;;;;5.80;3.20;;;13.50;89.50;;;;;;5051222;28;20097;-76
2021/09/20 06:51:55;;;;;;;7.85;3.67;;;13.50;89.40;;;;;;5050396;28;20115;-73
2021/09/20 06:54:21;;;;;;;4.88;2.70;;;13.50;89.20;;;;;;5051446;28;20096;-74
2021/09/20 06:56:48;;;;;;;7.95;3.60;;;13.50;89.10;;;;;;5051068;28;20044;-73
2021/09/20 06:59:14;;;;;;;7.15;3.05;;;13.60;89.20;;;;;;5051668;28;20461;-73
2021/09/20 07:01:40;;;;;;;6.60;3.15;;;13.60;89.00;;;;;;5049723;28;20032;-73
2021/09/20 07:04:06;;;;;;;6.78;3.50;;;13.60;89.50;;;;;;5051661;28;20028;-73
2021/09/20 07:06:31;;;;;;;5.32;2.85;;;13.60;88.60;;;;;;5050629;28;20013;-73
2021/09/20 07:08:57;;;;;;;7.57;3.65;;;13.60;88.60;;;;;;5051534;28;20365;-74
2021/09/20 07:11:24;;;;;;;7.25;3.65;;;13.60;88.50;;;;;;5051280;28;20024;-74
2021/09/20 07:13:50;;;;;;;5.40;2.75;;;13.60;88.20;;;;;;5050872;28;20032;-74
2021/09/20 07:16:15;;;;;;;8.15;3.47;;;13.60;88.10;;;;;;5051745;28;20074;-73
2021/09/20 07:18:41;;;;;;;6.20;3.53;;;13.70;88.00;;;;;;5053458;28;20355;-73
2021/09/20 07:21:07;;;;;;;7.13;3.55;;;13.70;87.90;;;;;;5055365;28;20017;-73
2021/09/20 07:23:33;;;;;;;7.63;3.50;;;13.80;87.80;;;;;;5054854;28;20199;-73
2021/09/20 07:25:59;;;;;;;6.55;3.55;;;13.80;87.50;;;;;;5054832;28;20021;-74
2021/09/20 07:28:25;;;;;;;5.30;3.33;;;13.80;87.50;;;;;;5055231;28;20028;-73
2021/09/20 07:30:51;;;;;;;8.48;3.90;;;13.90;87.20;;;;;;5054470;28;20049;-73
2021/09/20 07:33:16;;;;;;;5.13;2.90;;;13.90;87.20;;;;;;5053697;28;20112;-75
2021/09/20 07:35:42;;;;;;;6.65;3.47;;;13.90;87.20;;;;;;5054184;28;20032;-73
2021/09/20 07:38:08;;;;;;;7.15;3.67;;;14.00;87.00;;;;;;5053428;28;20021;-74
2021/09/20 07:40:34;;;;;;;6.57;3.13;;;14.00;87.00;;;;;;5054668;28;20361;-73
2021/09/20 07:43:01;;;;;;;5.75;2.80;;;14.10;87.00;;;;;;5054633;28;20365;-73
2021/09/20 07:45:28;;;;;;;6.18;3.20;;;14.10;86.90;;;;;;5053541;28;20108;-74
2021/09/20 07:47:54;;;;;;;9.27;3.83;;;14.10;86.80;;;;;;5054867;28;20024;-74
2021/09/20 07:50:22;;;;;;;5.65;3.03;;;14.10;87.40;;;;;;5054765;28;20017;-73
2021/09/20 07:52:48;;;;;;;5.57;3.40;;;14.20;86.80;;;;;;5054184;28;20029;-74
2021/09/20 07:55:15;;;;;;;9.90;3.85;;;14.20;86.70;;;;;;5054480;28;20469;-73
2021/09/20 07:57:41;;;;;;;7.15;3.33;;;14.20;86.60;;;;;;5054032;28;20013;-73
2021/09/20 08:00:09;;;;;;;8.35;4.03;;;14.30;86.70;;;;;;5054287;28;20013;-73
2021/09/20 08:02:35;;;;;;;8.50;3.78;;;14.30;86.60;;;;;;5053697;28;20025;-73
2021/09/20 08:05:01;;;;;;;5.75;2.95;;;14.30;86.60;;;;;;5054755;28;20430;-73
2021/09/20 08:07:26;;;;;;;8.63;3.45;;;14.40;86.50;;;;;;5054504;28;20023;-73
2021/09/20 08:09:52;;;;;;;7.50;3.38;;;14.40;86.40;;;;;;5053582;28;20499;-73
2021/09/20 08:12:17;;;;;;;7.47;3.50;;;14.50;86.30;;;;;;5054344;28;20025;-73
2021/09/20 08:14:43;;;;;;;6.72;3.55;;;14.50;86.30;;;;;;5053754;28;20024;-74
2021/09/20 08:17:10;;;;;;;7.00;3.53;;;14.60;86.20;;;;;;5054059;28;20025;-74
2021/09/20 08:19:37;;;;;;;6.72;4.38;;;14.60;86.10;;;;;;5053674;28;20024;-73
2021/09/20 08:22:03;;;;;;;6.13;3.75;;;14.60;86.00;;;;;;5053955;28;20048;-74
2021/09/20 08:24:29;;;;;;;6.47;3.85;;;14.70;85.80;;;;;;5054252;28;20025;-73
2021/09/20 08:26:55;;;;;;;6.07;3.55;;;14.70;85.60;;;;;;5052914;28;20081;-73
2021/09/20 08:29:22;;;;;;;5.43;3.03;;;14.80;85.60;;;;;;5053614;28;20103;-73
2021/09/20 08:31:47;;;;;;;6.72;3.42;;;14.80;85.50;;;;;;5053439;28;20049;-75
2021/09/20 08:34:13;;;;;;;7.07;3.30;;;14.80;85.40;;;;;;5053755;28;20052;-73
2021/09/20 08:36:39;;;;;;;6.15;3.10;;;14.80;85.20;;;;;;5051949;28;20099;-73
2021/09/20 08:39:04;;;;;;;6.40;3.45;;;14.90;85.10;;;;;;5053633;28;20017;-73
2021/09/20 08:41:30;;;;;;;6.97;3.80;;;14.90;85.00;;;;;;5053893;28;20021;-74
2021/09/20 08:43:56;;;;;;;5.70;3.15;;;14.90;84.80;;;;;;5053063;28;20422;-74
2021/09/20 08:46:22;;;;;;;6.57;3.30;;;15.00;84.70;;;;;;5053469;28;20524;-75
2021/09/20 08:48:50;;;;;;;6.88;3.85;;;15.00;84.40;;;;;;5053066;28;20017;-74
2021/09/20 08:51:18;;;;;;;6.85;3.92;;;15.10;84.30;;;;;;5052355;28;20052;-74
2021/09/20 08:53:44;;;;;;;5.93;3.28;;;15.10;84.10;;;;;;5051672;28;20025;-74
2021/09/20 08:56:10;;;;;;;7.55;3.65;;;15.10;84.00;;;;;;5053551;28;20025;-75
2021/09/20 08:58:36;;;;;;;5.57;2.80;;;15.10;83.80;;;;;;5052640;28;20035;-74
2021/09/20 09:01:02;;;;;;;6.47;3.55;;;15.10;83.70;;;;;;5053464;28;20028;-74
2021/09/20 09:03:30;;;;;;;5.75;3.30;;;15.20;83.60;;;;;;5053671;28;20024;-74
2021/09/20 09:05:56;;;;;;;7.30;3.40;;;15.20;83.30;;;;;;5052674;28;20017;-74
2021/09/20 09:08:38;;;;;;;6.57;3.38;;;15.30;83.30;;;;;;5053093;28;20526;-75
2021/09/20 09:11:11;;;;;;;6.40;2.95;;;15.30;83.10;;;;;;5053355;28;20013;-74
2021/09/20 09:13:42;;;;;;;5.88;3.28;;;15.30;83.00;;;;;;5052692;28;20025;-74
2021/09/20 09:16:18;;;;;;;4.70;2.83;;;15.40;82.50;;;;;;5053194;28;20036;-75
2021/09/20 09:19:07;;;;;;;6.65;3.35;;;15.40;82.40;;;;;;5052548;28;20017;-74
2021/09/20 09:21:40;;;;;;;5.53;3.45;;;15.40;82.20;;;;;;5053153;28;20017;-74
2021/09/20 09:24:14;;;;;;;5.68;3.17;;;15.50;81.90;;;;;;5053167;28;20021;-75
2021/09/20 09:27:01;;;;;;;8.00;3.40;;;15.50;81.50;;;;;;5052487;28;20017;-74
2021/09/20 09:29:31;;;;;;;6.50;3.17;;;15.50;81.20;;;;;;5052946;28;20033;-74
2021/09/20 09:32:00;;;;;;;4.90;3.03;;;15.50;81.10;;;;;;5052311;28;20025;-74
2021/09/20 09:34:29;;;;;;;9.60;3.22;;;15.60;81.10;;;;;;5052771;28;20078;-75
2021/09/20 09:37:10;;;;;;;7.10;4.05;;;15.60;81.00;;;;;;5051900;28;20079;-75
2021/09/20 09:39:37;;;;;;;6.25;2.90;;;15.60;81.10;;;;;;5050141;28;20442;-75
2021/09/20 09:42:03;;;;;;;4.97;3.00;;;15.70;80.60;;;;;;5052760;28;20087;-75
2021/09/20 09:44:31;;;;;;;4.85;3.08;;;15.70;80.60;;;;;;5052717;28;20013;-75
2021/09/20 09:46:58;;;;;;;6.78;3.22;;;15.70;80.40;;;;;;5052006;28;20108;-74
2021/09/20 09:49:25;;;;;;;5.13;2.92;;;15.80;80.10;;;;;;5052570;28;20081;-74
2021/09/20 09:52:10;;;;;;;5.82;3.17;;;15.80;79.70;;;;;;5051761;28;20417;-73
2021/09/20 09:54:41;;;;;;;5.78;2.97;;;15.90;79.50;;;;;;5051120;28;20021;-75
2021/09/20 09:57:13;;;;;;;;;;;16.00;79.50;;;;;;5053041;28;20424;-74
2021/09/20 09:59:39;;;;;;;8.00;3.22;;;16.00;79.50;;;;;;5051847;28;19907;-74
2021/09/20 10:02:19;;;;;;;4.38;2.55;;;16.00;79.30;;;;;;5050991;28;20079;-75
2021/09/20 10:04:56;;;;;;;4.72;2.72;;;16.10;79.00;;;;;;5052182;28;20013;-74
2021/09/20 10:07:24;;;;;;;5.30;2.70;;;16.10;78.90;;;;;;5055593;28;20025;-74
2021/09/20 10:09:50;;;;;;;6.72;3.10;;;16.10;78.80;;;;;;5050536;28;20075;-74
2021/09/20 10:12:17;;;;;;;6.53;2.95;;;16.20;78.40;;;;;;5052138;28;20028;-74
2021/09/20 10:14:44;;;;;;;5.15;2.78;;;16.30;78.00;;;;;;5051435;28;20017;-74
2021/09/20 10:17:16;;;;;;;4.50;2.22;;;16.30;77.70;;;;;;5052114;28;20056;-74
2021/09/20 10:19:42;;;;;;;5.03;2.92;;;16.40;77.60;;;;;;5051417;28;20014;-74
2021/09/20 10:22:08;;;;;;;5.13;2.47;;;16.40;77.40;;;;;;5051726;28;20460;-75
2021/09/20 10:24:34;;;;;;;5.22;2.85;;;16.50;77.30;;;;;;5051525;28;20100;-75
2021/09/20 10:26:59;;;;;;;5.70;3.53;;;16.60;77.10;;;;;;5051347;28;20052;-74
2021/09/20 10:29:26;;;;;;;6.75;3.30;;;16.70;76.60;;;;;;5051596;28;20021;-75
2021/09/20 10:31:53;;;;;;;4.97;2.53;;;16.80;76.30;;;;;;5051133;28;20035;-75
2021/09/20 10:34:23;;;;;;;4.32;2.47;;;16.90;75.90;;;;;;5052006;28;20025;-77
2021/09/20 10:36:53;;;;;;;6.70;3.45;;;16.90;75.70;;;;;;5050060;28;20348;-74
2021/09/20 10:39:48;;;;;;;4.35;2.63;;;17.00;75.40;;;;;;5051988;28;20021;-75
2021/09/20 10:42:35;;;;;;;6.03;3.05;;;17.10;75.10;;;;;;5051638;28;20358;-75
2021/09/20 10:45:07;;;;;;;6.07;3.10;;;17.30;74.40;;;;;;5051226;28;20453;-75
2021/09/20 10:47:47;;;;;;;6.65;3.00;;;17.30;74.20;;;;;;5051956;28;20043;-74
2021/09/20 10:50:14;;;;;;;4.97;2.90;;;17.30;74.00;;;;;;5051609;28;20021;-75
2021/09/20 10:53:15;;;;;;;4.80;2.70;;;17.40;74.00;;;;;;5055690;28;20025;-74
2021/09/20 10:56:02;;;;;;;4.53;2.55;;;17.30;73.90;;;;;;5055879;28;20025;-74
2021/09/20 10:58:32;;;;;;;5.82;2.97;;;17.30;73.90;;;;;;5055797;28;20025;-75
2021/09/20 11:01:15;;;;;;;4.18;2.38;;;17.30;73.70;;;;;;5053754;28;20059;-74
2021/09/20 11:03:43;;;;;;;5.32;3.08;;;17.30;73.60;;;;;;5054299;28;20025;-74
2021/09/20 11:06:26;;;;;;;4.97;3.00;;;17.30;73.70;;;;;;5055350;28;20013;-74
2021/09/20 11:08:54;;;;;;;4.50;2.65;;;17.30;73.50;;;;;;5053650;28;20024;-73
2021/09/20 11:12:01;;;;;;;5.53;3.20;;;17.40;73.40;;;;;;5055054;28;20028;-73
2021/09/20 11:14:41;;;;;;;5.32;3.05;;;17.50;73.10;;;;;;5054145;28;20477;-74
2021/09/20 11:17:40;;;;;;;4.83;2.87;;;17.50;72.80;;;;;;5053509;28;20021;-73
2021/09/20 11:20:17;;;;;;;4.20;2.70;;;17.50;72.50;;;;;;5054793;28;20013;-73
2021/09/20 11:22:43;;;;;;;3.42;2.20;;;17.50;72.40;;;;;;5054186;28;20036;-74
2021/09/20 11:25:15;;;;;;;4.22;2.72;;;17.60;72.80;;;;;;5055314;28;20021;-74
2021/09/20 11:27:44;;;;;;;4.05;2.45;;;17.60;72.40;;;;;;5055222;28;20076;-74
2021/09/20 11:30:13;;;;;;;5.40;2.38;;;17.80;72.30;;;;;;5053608;28;20037;-74
2021/09/20 11:32:43;;;;;;;5.78;2.78;;;18.00;72.00;;;;;;5055174;28;20103;-74
2021/09/20 11:35:10;;;;;;;4.90;2.80;;;18.20;71.20;;;;;;5054501;28;20075;-74
2021/09/20 11:37:36;;;;;;;3.00;1.88;;;18.40;70.80;;;;;;5054946;28;20024;-74
2021/09/20 11:40:08;;;;;;;3.50;2.00;;;18.50;70.60;;;;;;5054471;28;20024;-73
2021/09/20 11:42:36;;;;;;;4.50;2.58;;;18.60;70.40;;;;;;5055060;28;20025;-74
2021/09/20 11:45:16;;;;;;;3.17;1.88;;;18.60;70.20;;;;;;5052973;28;20017;-74
2021/09/20 11:48:03;;;;;;;4.28;2.53;;;18.60;70.30;;;;;;5053498;28;20465;-74
2021/09/20 11:50:32;;;;;;;3.95;2.40;;;18.70;69.70;;;;;;5053564;28;20020;-74
2021/09/20 11:53:01;;;;;;;4.57;2.50;;;18.80;69.80;;;;;;5052671;28;20090;-73
2021/09/20 11:55:32;;;;;;;5.80;3.30;;;18.90;69.40;;;;;;5054623;28;20111;-73
2021/09/20 11:58:00;;;;;;;6.07;3.05;;;18.90;69.30;;;;;;5053898;28;20021;-75
2021/09/20 12:00:29;;;;;;;4.80;2.63;;;18.90;69.10;;;;;;5054656;28;20024;-73
2021/09/20 12:02:56;;;;;;;5.28;2.60;;;18.80;68.80;;;;;;5053091;28;20115;-75
2021/09/20 12:05:27;;;;;;;4.53;2.78;;;18.70;68.70;;;;;;5053345;28;20338;-75
2021/09/20 12:07:56;;;;;;;3.50;2.00;;;18.60;68.90;;;;;;5054139;28;20032;-75
2021/09/20 12:10:31;;;;;;;5.75;2.92;;;18.50;69.30;;;;;;5053131;28;20449;-75
2021/09/20 12:12:59;;;;;;;5.03;2.90;;;18.50;69.20;;;;;;5053917;28;20029;-75
2021/09/20 12:15:27;;;;;;;4.10;2.20;;;18.50;69.20;;;;;;5054233;28;20039;-75
2021/09/20 12:18:02;;;;;;;8.70;3.08;;;18.50;69.30;;;;;;5052426;28;20013;-74
2021/09/20 12:20:39;;;;;;;4.70;2.67;;;18.60;69.20;;;;;;5054297;28;20020;-75
2021/09/20 12:23:13;;;;;;;4.78;3.17;;;18.60;69.10;;;;;;5053783;28;20021;-74
2021/09/20 12:25:40;;;;;;;5.15;2.92;;;18.60;69.20;;;;;;5054332;28;20100;-74
2021/09/20 12:28:14;;;;;;;6.07;2.95;;;18.60;68.80;;;;;;5053500;28;20422;-75
2021/09/20 12:30:56;;;;;;;4.55;2.53;;;18.60;68.80;;;;;;5054173;28;20111;-74
2021/09/20 12:33:22;;;;;;;5.85;2.83;;;18.60;68.40;;;;;;5054025;28;20021;-75
2021/09/20 12:35:48;;;;;;;3.67;2.10;;;18.60;68.40;;;;;;5054076;28;20111;-75
2021/09/20 12:38:27;;;;;;;4.38;2.50;;;18.70;68.40;;;;;;5054390;28;20116;-74
2021/09/20 12:40:54;;;;;;;5.45;2.75;;;18.70;68.30;;;;;;5053410;28;20021;-73
2021/09/20 12:43:30;;;;;;;5.25;2.50;;;18.80;68.30;;;;;;5052550;28;20020;-74
2021/09/20 12:45:57;;;;;;;5.43;2.83;;;18.90;68.20;;;;;;5051860;28;20346;-74
2021/09/20 12:48:35;;;;;;;6.30;3.00;;;18.90;68.20;;;;;;5053992;28;20025;-74
2021/09/20 12:51:04;;;;;;;5.43;2.42;;;18.90;68.10;;;;;;5052933;28;20461;-74